Terminal Aerodrome Forecast
Issued by NWS

Home | Current Version | Previous Version | Graphics & Text | Print | Product List | Glossary On
Versions: 1 2 3 4 5 6 7 8 9 10 11 12 13 14 15 16 17 18 19 20 21
000
FTUS43 KMPX 292300
TAFRNH
TAF
KRNH 292331Z 3000/3024 06009KT P6SM SCT025
     FM300300 07006KT P6SM SCT012 SCT030
     FM300900 09007KT 6SM BR SCT008
      TEMPO 3009/3013 5SM BR BKN008
     FM301500 11008KT P6SM SCT025 SCT250
     FM302000 12010KT P6SM SCT030 SCT060=

USA.gov is the U.S. government's official web portal to all federal, state and local government web resources and services.